Aérodrome :
LOGIN :

S'inscrire | Disclaimer

   EN    FR    IT 

 










Légende :    VFR   VFR Marginal   IFR   IFR Intensif   IFR Très Intensif
Visi : 
Plafond : 
>= 8 km
>= 3000ft
5 à 8 km
1000 à 3000 ft
1500m à 5 km
500 à 1000 ft
800 à 1500m
200 à 500 ft
< 800m
< 200 ft
Symboles :   Orages  Brouillard  Fortes neiges  Fortes précipitations  Vent > 20 kt
SIGMETs :   Divers  Orages  Givrage  Turbulence  Onde Orograph.  Cendres Volcan.







- Altitude de l'aérodrome : 405 ft
- Code IATA : ODH


EGVO - RAF Odiham

DERNIER METAR :
  • 230050Z 18003KT CAVOK 15/14 Q1021 RMK BLU

METARs EXPIRÉS :
  • 222350Z 18003KT CAVOK 15/14 Q1021 BECMG 6000 BR RMK BLU BECMG WHT
  • 222320Z 22004KT CAVOK 17/16 Q1021 BECMG 6000 BR RMK BLU BECMG WHT
  • 222250Z 23005KT CAVOK 18/17 Q1021 BECMG 6000 BR RMK BLU BECMG WHT
  • 222220Z 24004KT CAVOK 18/17 Q1021 BECMG 6000 BR RMK BLU BECMG WHT

TAF TAF EGVO
Valide du 23 à 00h jusqu'au 23 à 12h UTC


222232Z 2300/2312 21005KT 5000 BR FEW028
PROB40 2300/2301 9999 NSW
BECMG 2301/2303 2000 BKN003
PROB30 2302/2305 0500 FG VV///
BECMG 2305/2308 9999 NSW FEW008
Pas de NOTAMs connus pour ce terrain.



MET'MAP, la Météo Aéronautique d'un coup d'oeil ! - Copyright ORBIFLY Décembre 2007 - Disclaimer

ORBIFLY MET'MAP TEAM :

Programmation & Développement : Alexandra Zaïnal
Conception & Développement : Baudouin d'Aumeries
Co-Programmation & Développement : Marc-Olivier Méhu
Soutien technique & logistique : Manuel Goepfert

Contact : metmap@orbifly.com




SOURCES & CREDITS :

   NOAA